sensor_id;sensor_type;location;lat;lon;timestamp;P1;durP1;ratioP1;P2;durP2;ratioP2
12896;SDS011;6516;35.028;32.372;2023-02-08T00:01:09;5.50;;;2.30;;
12896;SDS011;6516;35.028;32.372;2023-02-08T00:03:39;6.90;;;3.03;;
12896;SDS011;6516;35.028;32.372;2023-02-08T00:06:06;5.88;;;2.45;;
12896;SDS011;6516;35.028;32.372;2023-02-08T00:08:37;5.47;;;2.30;;
12896;SDS011;6516;35.028;32.372;2023-02-08T00:11:06;4.68;;;2.20;;
12896;SDS011;6516;35.028;32.372;2023-02-08T00:13:36;5.15;;;2.13;;
12896;SDS011;6516;35.028;32.372;2023-02-08T00:16:06;5.57;;;2.40;;
12896;SDS011;6516;35.028;32.372;2023-02-08T00:18:33;5.45;;;2.65;;
12896;SDS011;6516;35.028;32.372;2023-02-08T00:21:05;4.55;;;2.05;;
12896;SDS011;6516;35.028;32.372;2023-02-08T00:23:37;6.82;;;2.13;;
12896;SDS011;6516;35.028;32.372;2023-02-08T00:26:08;5.47;;;2.40;;
12896;SDS011;6516;35.028;32.372;2023-02-08T00:28:38;5.35;;;2.08;;
12896;SDS011;6516;35.028;32.372;2023-02-08T00:31:06;7.47;;;2.20;;
12896;SDS011;6516;35.028;32.372;2023-02-08T00:33:34;4.82;;;1.83;;
12896;SDS011;6516;35.028;32.372;2023-02-08T00:36:03;3.92;;;1.80;;
12896;SDS011;6516;35.028;32.372;2023-02-08T00:38:33;4.07;;;2.22;;
12896;SDS011;6516;35.028;32.372;2023-02-08T00:41:03;4.47;;;1.70;;
12896;SDS011;6516;35.028;32.372;2023-02-08T00:43:31;5.50;;;1.50;;
12896;SDS011;6516;35.028;32.372;2023-02-08T00:46:01;5.07;;;1.93;;
12896;SDS011;6516;35.028;32.372;2023-02-08T00:48:29;4.82;;;1.70;;
12896;SDS011;6516;35.028;32.372;2023-02-08T00:50:58;4.32;;;1.83;;
12896;SDS011;6516;35.028;32.372;2023-02-08T00:53:28;5.50;;;1.90;;
12896;SDS011;6516;35.028;32.372;2023-02-08T00:55:56;5.53;;;1.80;;
12896;SDS011;6516;35.028;32.372;2023-02-08T00:58:26;5.28;;;1.70;;
12896;SDS011;6516;35.028;32.372;2023-02-08T01:00:54;5.05;;;1.63;;
12896;SDS011;6516;35.028;32.372;2023-02-08T01:03:22;3.70;;;1.70;;
12896;SDS011;6516;35.028;32.372;2023-02-08T01:05:50;4.50;;;1.67;;
12896;SDS011;6516;35.028;32.372;2023-02-08T01:08:18;4.03;;;1.55;;
12896;SDS011;6516;35.028;32.372;2023-02-08T01:10:46;4.83;;;1.90;;
12896;SDS011;6516;35.028;32.372;2023-02-08T01:13:14;4.50;;;1.70;;
12896;SDS011;6516;35.028;32.372;2023-02-08T01:15:43;4.07;;;1.60;;
12896;SDS011;6516;35.028;32.372;2023-02-08T01:18:11;3.72;;;1.60;;
12896;SDS011;6516;35.028;32.372;2023-02-08T01:20:39;5.28;;;1.80;;
12896;SDS011;6516;35.028;32.372;2023-02-08T01:23:07;4.63;;;2.03;;
12896;SDS011;6516;35.028;32.372;2023-02-08T01:25:34;8.68;;;2.20;;
12896;SDS011;6516;35.028;32.372;2023-02-08T01:28:02;5.53;;;2.30;;
12896;SDS011;6516;35.028;32.372;2023-02-08T01:30:30;6.65;;;2.42;;
12896;SDS011;6516;35.028;32.372;2023-02-08T01:32:59;5.60;;;2.20;;
12896;SDS011;6516;35.028;32.372;2023-02-08T01:35:27;6.33;;;2.17;;
12896;SDS011;6516;35.028;32.372;2023-02-08T01:37:55;6.18;;;2.22;;
12896;SDS011;6516;35.028;32.372;2023-02-08T01:40:22;7.82;;;2.08;;
12896;SDS011;6516;35.028;32.372;2023-02-08T01:42:50;5.10;;;2.10;;
12896;SDS011;6516;35.028;32.372;2023-02-08T01:45:20;5.25;;;1.80;;
12896;SDS011;6516;35.028;32.372;2023-02-08T01:47:54;7.17;;;2.30;;
12896;SDS011;6516;35.028;32.372;2023-02-08T01:50:34;6.13;;;2.20;;
12896;SDS011;6516;35.028;32.372;2023-02-08T01:53:08;4.45;;;2.17;;
12896;SDS011;6516;35.028;32.372;2023-02-08T01:55:38;6.72;;;2.03;;
12896;SDS011;6516;35.028;32.372;2023-02-08T01:58:12;5.60;;;2.10;;
12896;SDS011;6516;35.028;32.372;2023-02-08T02:00:43;6.20;;;2.57;;
12896;SDS011;6516;35.028;32.372;2023-02-08T02:03:12;5.07;;;2.03;;
12896;SDS011;6516;35.028;32.372;2023-02-08T02:05:41;5.38;;;2.10;;
12896;SDS011;6516;35.028;32.372;2023-02-08T02:08:12;5.57;;;2.08;;
12896;SDS011;6516;35.028;32.372;2023-02-08T02:10:40;4.63;;;1.92;;
12896;SDS011;6516;35.028;32.372;2023-02-08T02:13:10;5.93;;;2.00;;
12896;SDS011;6516;35.028;32.372;2023-02-08T02:15:41;4.63;;;2.20;;
12896;SDS011;6516;35.028;32.372;2023-02-08T02:18:13;5.75;;;2.15;;
12896;SDS011;6516;35.028;32.372;2023-02-08T02:21:01;5.82;;;2.13;;
12896;SDS011;6516;35.028;32.372;2023-02-08T02:30:44;6.30;;;1.88;;
12896;SDS011;6516;35.028;32.372;2023-02-08T02:33:53;6.22;;;2.10;;
12896;SDS011;6516;35.028;32.372;2023-02-08T02:36:32;6.28;;;2.10;;
12896;SDS011;6516;35.028;32.372;2023-02-08T02:39:12;4.57;;;1.70;;
12896;SDS011;6516;35.028;32.372;2023-02-08T02:41:49;6.70;;;2.47;;
12896;SDS011;6516;35.028;32.372;2023-02-08T02:44:45;4.60;;;2.15;;
12896;SDS011;6516;35.028;32.372;2023-02-08T02:47:23;6.57;;;2.42;;
12896;SDS011;6516;35.028;32.372;2023-02-08T02:50:04;5.63;;;2.20;;
12896;SDS011;6516;35.028;32.372;2023-02-08T02:52:42;6.45;;;2.05;;
12896;SDS011;6516;35.028;32.372;2023-02-08T02:55:17;6.13;;;2.20;;
12896;SDS011;6516;35.028;32.372;2023-02-08T02:57:49;5.55;;;2.30;;
12896;SDS011;6516;35.028;32.372;2023-02-08T03:00:21;4.53;;;1.83;;
12896;SDS011;6516;35.028;32.372;2023-02-08T03:02:52;4.90;;;2.10;;
12896;SDS011;6516;35.028;32.372;2023-02-08T03:05:23;4.80;;;1.80;;
12896;SDS011;6516;35.028;32.372;2023-02-08T03:07:55;5.00;;;2.20;;
12896;SDS011;6516;35.028;32.372;2023-02-08T03:13:44;5.00;;;1.80;;
12896;SDS011;6516;35.028;32.372;2023-02-08T03:16:31;4.68;;;2.13;;
12896;SDS011;6516;35.028;32.372;2023-02-08T03:19:17;6.38;;;2.10;;
12896;SDS011;6516;35.028;32.372;2023-02-08T03:21:53;5.93;;;1.90;;
12896;SDS011;6516;35.028;32.372;2023-02-08T03:24:27;4.47;;;2.13;;
12896;SDS011;6516;35.028;32.372;2023-02-08T03:27:02;7.30;;;2.42;;
12896;SDS011;6516;35.028;32.372;2023-02-08T03:29:39;4.90;;;2.00;;
12896;SDS011;6516;35.028;32.372;2023-02-08T03:32:16;6.65;;;2.42;;
12896;SDS011;6516;35.028;32.372;2023-02-08T03:34:47;6.35;;;2.22;;
12896;SDS011;6516;35.028;32.372;2023-02-08T03:37:22;6.55;;;2.20;;
12896;SDS011;6516;35.028;32.372;2023-02-08T03:39:54;5.85;;;2.38;;
12896;SDS011;6516;35.028;32.372;2023-02-08T03:42:27;5.18;;;2.20;;
12896;SDS011;6516;35.028;32.372;2023-02-08T03:44:59;6.05;;;2.30;;
12896;SDS011;6516;35.028;32.372;2023-02-08T03:47:33;4.80;;;2.10;;
12896;SDS011;6516;35.028;32.372;2023-02-08T03:50:05;5.68;;;1.98;;
12896;SDS011;6516;35.028;32.372;2023-02-08T03:52:38;5.15;;;2.22;;
12896;SDS011;6516;35.028;32.372;2023-02-08T03:55:07;5.18;;;1.92;;
12896;SDS011;6516;35.028;32.372;2023-02-08T03:57:42;5.57;;;2.03;;
12896;SDS011;6516;35.028;32.372;2023-02-08T04:00:15;4.50;;;2.03;;
12896;SDS011;6516;35.028;32.372;2023-02-08T04:02:47;5.38;;;2.13;;
12896;SDS011;6516;35.028;32.372;2023-02-08T04:05:22;6.75;;;2.25;;
12896;SDS011;6516;35.028;32.372;2023-02-08T04:07:52;5.40;;;2.20;;
12896;SDS011;6516;35.028;32.372;2023-02-08T04:10:19;5.50;;;2.30;;
12896;SDS011;6516;35.028;32.372;2023-02-08T04:12:47;5.63;;;2.20;;
12896;SDS011;6516;35.028;32.372;2023-02-08T04:15:15;5.78;;;2.20;;
12896;SDS011;6516;35.028;32.372;2023-02-08T04:17:43;4.60;;;2.13;;
12896;SDS011;6516;35.028;32.372;2023-02-08T04:20:11;6.53;;;1.85;;
12896;SDS011;6516;35.028;32.372;2023-02-08T04:22:39;5.32;;;2.17;;
12896;SDS011;6516;35.028;32.372;2023-02-08T04:25:09;6.60;;;2.20;;
12896;SDS011;6516;35.028;32.372;2023-02-08T04:27:37;5.15;;;2.40;;
12896;SDS011;6516;35.028;32.372;2023-02-08T04:30:05;4.82;;;2.30;;
12896;SDS011;6516;35.028;32.372;2023-02-08T04:32:34;5.03;;;2.17;;
12896;SDS011;6516;35.028;32.372;2023-02-08T04:35:02;5.60;;;2.42;;
12896;SDS011;6516;35.028;32.372;2023-02-08T04:37:30;5.63;;;2.42;;
12896;SDS011;6516;35.028;32.372;2023-02-08T04:39:59;4.75;;;2.10;;
12896;SDS011;6516;35.028;32.372;2023-02-08T04:42:28;5.38;;;2.20;;
12896;SDS011;6516;35.028;32.372;2023-02-08T04:44:56;5.32;;;2.25;;
12896;SDS011;6516;35.028;32.372;2023-02-08T04:47:24;7.63;;;2.42;;
12896;SDS011;6516;35.028;32.372;2023-02-08T04:49:51;5.05;;;2.50;;
12896;SDS011;6516;35.028;32.372;2023-02-08T04:52:19;6.45;;;2.10;;
12896;SDS011;6516;35.028;32.372;2023-02-08T04:54:47;5.75;;;2.47;;
12896;SDS011;6516;35.028;32.372;2023-02-08T04:57:14;4.72;;;2.28;;
12896;SDS011;6516;35.028;32.372;2023-02-08T04:59:44;5.68;;;2.35;;
12896;SDS011;6516;35.028;32.372;2023-02-08T05:02:11;7.47;;;2.42;;
12896;SDS011;6516;35.028;32.372;2023-02-08T05:04:39;5.10;;;2.60;;
12896;SDS011;6516;35.028;32.372;2023-02-08T05:07:07;4.72;;;2.10;;
12896;SDS011;6516;35.028;32.372;2023-02-08T05:09:34;6.15;;;2.45;;
12896;SDS011;6516;35.028;32.372;2023-02-08T05:12:02;6.18;;;2.50;;
12896;SDS011;6516;35.028;32.372;2023-02-08T05:14:31;6.85;;;2.50;;
12896;SDS011;6516;35.028;32.372;2023-02-08T05:17:00;5.68;;;2.50;;
12896;SDS011;6516;35.028;32.372;2023-02-08T05:19:27;6.70;;;2.22;;
12896;SDS011;6516;35.028;32.372;2023-02-08T05:21:55;6.13;;;2.60;;
12896;SDS011;6516;35.028;32.372;2023-02-08T05:24:23;5.30;;;2.35;;
12896;SDS011;6516;35.028;32.372;2023-02-08T05:26:51;5.18;;;2.42;;
12896;SDS011;6516;35.028;32.372;2023-02-08T05:29:19;6.93;;;2.42;;
12896;SDS011;6516;35.028;32.372;2023-02-08T05:31:46;8.55;;;2.17;;
12896;SDS011;6516;35.028;32.372;2023-02-08T05:34:15;5.20;;;2.22;;
12896;SDS011;6516;35.028;32.372;2023-02-08T05:36:43;4.18;;;2.08;;
12896;SDS011;6516;35.028;32.372;2023-02-08T05:39:11;5.15;;;2.00;;
12896;SDS011;6516;35.028;32.372;2023-02-08T05:41:39;6.97;;;2.00;;
12896;SDS011;6516;35.028;32.372;2023-02-08T05:44:06;6.00;;;2.00;;
12896;SDS011;6516;35.028;32.372;2023-02-08T05:46:34;6.07;;;2.03;;
12896;SDS011;6516;35.028;32.372;2023-02-08T05:49:02;4.30;;;2.10;;
12896;SDS011;6516;35.028;32.372;2023-02-08T05:51:31;4.73;;;2.13;;
12896;SDS011;6516;35.028;32.372;2023-02-08T05:53:59;4.43;;;2.03;;
12896;SDS011;6516;35.028;32.372;2023-02-08T05:56:26;4.20;;;2.03;;
12896;SDS011;6516;35.028;32.372;2023-02-08T05:58:55;4.20;;;1.90;;
12896;SDS011;6516;35.028;32.372;2023-02-08T06:01:23;6.53;;;2.30;;
12896;SDS011;6516;35.028;32.372;2023-02-08T06:03:51;5.07;;;1.87;;
12896;SDS011;6516;35.028;32.372;2023-02-08T06:06:18;3.90;;;1.70;;
12896;SDS011;6516;35.028;32.372;2023-02-08T06:08:48;4.50;;;2.00;;
12896;SDS011;6516;35.028;32.372;2023-02-08T06:11:17;5.45;;;2.00;;
12896;SDS011;6516;35.028;32.372;2023-02-08T06:13:44;4.50;;;2.20;;
12896;SDS011;6516;35.028;32.372;2023-02-08T06:16:13;6.13;;;2.10;;
12896;SDS011;6516;35.028;32.372;2023-02-08T06:18:41;5.30;;;2.05;;
12896;SDS011;6516;35.028;32.372;2023-02-08T06:21:09;4.43;;;2.08;;
12896;SDS011;6516;35.028;32.372;2023-02-08T06:23:37;5.00;;;2.05;;
12896;SDS011;6516;35.028;32.372;2023-02-08T06:26:08;4.07;;;1.88;;
12896;SDS011;6516;35.028;32.372;2023-02-08T06:28:36;5.40;;;2.20;;
12896;SDS011;6516;35.028;32.372;2023-02-08T06:31:04;5.20;;;1.80;;
12896;SDS011;6516;35.028;32.372;2023-02-08T06:33:32;5.03;;;2.10;;
12896;SDS011;6516;35.028;32.372;2023-02-08T06:36:00;4.57;;;1.70;;
12896;SDS011;6516;35.028;32.372;2023-02-08T06:38:27;4.40;;;1.80;;
12896;SDS011;6516;35.028;32.372;2023-02-08T06:40:55;4.20;;;1.70;;
12896;SDS011;6516;35.028;32.372;2023-02-08T06:43:25;4.00;;;1.80;;
12896;SDS011;6516;35.028;32.372;2023-02-08T06:45:52;4.63;;;1.80;;
12896;SDS011;6516;35.028;32.372;2023-02-08T06:48:20;7.00;;;1.90;;
12896;SDS011;6516;35.028;32.372;2023-02-08T06:50:50;4.50;;;1.88;;
12896;SDS011;6516;35.028;32.372;2023-02-08T06:53:19;6.03;;;1.80;;
12896;SDS011;6516;35.028;32.372;2023-02-08T06:55:47;4.32;;;1.92;;
12896;SDS011;6516;35.028;32.372;2023-02-08T06:58:15;5.80;;;2.00;;
12896;SDS011;6516;35.028;32.372;2023-02-08T07:00:45;4.25;;;1.70;;
12896;SDS011;6516;35.028;32.372;2023-02-08T07:03:13;4.68;;;1.95;;
12896;SDS011;6516;35.028;32.372;2023-02-08T07:05:42;4.53;;;1.97;;
12896;SDS011;6516;35.028;32.372;2023-02-08T07:08:10;4.88;;;1.80;;
12896;SDS011;6516;35.028;32.372;2023-02-08T07:10:37;5.07;;;1.90;;
12896;SDS011;6516;35.028;32.372;2023-02-08T07:13:05;5.38;;;2.00;;
12896;SDS011;6516;35.028;32.372;2023-02-08T07:15:34;6.32;;;2.13;;
12896;SDS011;6516;35.028;32.372;2023-02-08T07:18:03;7.27;;;2.30;;
12896;SDS011;6516;35.028;32.372;2023-02-08T07:20:31;9.00;;;2.30;;
12896;SDS011;6516;35.028;32.372;2023-02-08T07:22:58;5.60;;;2.03;;
12896;SDS011;6516;35.028;32.372;2023-02-08T07:25:26;6.03;;;2.17;;
12896;SDS011;6516;35.028;32.372;2023-02-08T07:27:54;4.90;;;2.00;;
12896;SDS011;6516;35.028;32.372;2023-02-08T07:30:22;5.90;;;2.30;;
12896;SDS011;6516;35.028;32.372;2023-02-08T07:32:49;7.85;;;2.28;;
12896;SDS011;6516;35.028;32.372;2023-02-08T07:35:19;4.70;;;2.00;;
12896;SDS011;6516;35.028;32.372;2023-02-08T07:37:47;5.18;;;1.90;;
12896;SDS011;6516;35.028;32.372;2023-02-08T07:40:15;5.38;;;1.98;;
12896;SDS011;6516;35.028;32.372;2023-02-08T07:42:43;5.73;;;1.90;;
12896;SDS011;6516;35.028;32.372;2023-02-08T07:45:11;5.68;;;2.45;;
12896;SDS011;6516;35.028;32.372;2023-02-08T07:47:39;7.85;;;2.30;;
12896;SDS011;6516;35.028;32.372;2023-02-08T07:50:07;5.75;;;2.17;;
12896;SDS011;6516;35.028;32.372;2023-02-08T07:52:37;6.55;;;2.10;;
12896;SDS011;6516;35.028;32.372;2023-02-08T07:55:07;5.50;;;2.03;;
12896;SDS011;6516;35.028;32.372;2023-02-08T07:57:36;4.65;;;1.58;;
12896;SDS011;6516;35.028;32.372;2023-02-08T08:00:04;5.28;;;1.65;;
12896;SDS011;6516;35.028;32.372;2023-02-08T08:02:33;4.65;;;1.60;;
12896;SDS011;6516;35.028;32.372;2023-02-08T08:05:01;5.82;;;1.90;;
12896;SDS011;6516;35.028;32.372;2023-02-08T08:07:29;4.80;;;1.60;;
12896;SDS011;6516;35.028;32.372;2023-02-08T08:09:58;4.93;;;1.80;;
12896;SDS011;6516;35.028;32.372;2023-02-08T08:12:27;3.95;;;1.40;;
12896;SDS011;6516;35.028;32.372;2023-02-08T08:14:54;5.20;;;1.73;;
12896;SDS011;6516;35.028;32.372;2023-02-08T08:17:22;4.45;;;1.60;;
12896;SDS011;6516;35.028;32.372;2023-02-08T08:19:50;4.70;;;1.90;;
12896;SDS011;6516;35.028;32.372;2023-02-08T08:22:18;4.47;;;1.90;;
12896;SDS011;6516;35.028;32.372;2023-02-08T08:24:45;6.07;;;1.70;;
12896;SDS011;6516;35.028;32.372;2023-02-08T08:27:15;4.53;;;1.90;;
12896;SDS011;6516;35.028;32.372;2023-02-08T08:29:43;6.60;;;1.90;;
12896;SDS011;6516;35.028;32.372;2023-02-08T08:32:11;9.43;;;1.90;;
12896;SDS011;6516;35.028;32.372;2023-02-08T08:34:39;7.40;;;2.00;;
12896;SDS011;6516;35.028;32.372;2023-02-08T08:37:07;4.43;;;1.60;;
12896;SDS011;6516;35.028;32.372;2023-02-08T08:39:36;5.35;;;1.63;;
12896;SDS011;6516;35.028;32.372;2023-02-08T08:42:04;6.05;;;1.80;;
12896;SDS011;6516;35.028;32.372;2023-02-08T08:44:33;6.60;;;1.97;;
12896;SDS011;6516;35.028;32.372;2023-02-08T08:47:01;7.50;;;2.08;;
12896;SDS011;6516;35.028;32.372;2023-02-08T08:49:29;4.75;;;1.90;;
12896;SDS011;6516;35.028;32.372;2023-02-08T08:51:59;4.70;;;1.80;;
12896;SDS011;6516;35.028;32.372;2023-02-08T08:54:26;5.55;;;1.70;;
12896;SDS011;6516;35.028;32.372;2023-02-08T08:56:54;5.07;;;1.70;;
12896;SDS011;6516;35.028;32.372;2023-02-08T08:59:22;4.85;;;1.50;;
12896;SDS011;6516;35.028;32.372;2023-02-08T09:01:51;3.42;;;1.40;;
12896;SDS011;6516;35.028;32.372;2023-02-08T09:04:20;4.50;;;1.60;;
12896;SDS011;6516;35.028;32.372;2023-02-08T09:06:48;4.25;;;1.90;;
12896;SDS011;6516;35.028;32.372;2023-02-08T09:09:15;5.13;;;1.90;;
12896;SDS011;6516;35.028;32.372;2023-02-08T09:11:44;3.92;;;1.65;;
12896;SDS011;6516;35.028;32.372;2023-02-08T09:14:15;5.35;;;1.60;;
12896;SDS011;6516;35.028;32.372;2023-02-08T09:16:45;4.53;;;1.90;;
12896;SDS011;6516;35.028;32.372;2023-02-08T09:19:14;5.10;;;1.83;;
12896;SDS011;6516;35.028;32.372;2023-02-08T09:21:42;4.57;;;1.77;;
12896;SDS011;6516;35.028;32.372;2023-02-08T09:24:11;4.55;;;1.70;;
12896;SDS011;6516;35.028;32.372;2023-02-08T09:26:39;4.90;;;1.30;;
12896;SDS011;6516;35.028;32.372;2023-02-08T09:29:07;5.28;;;1.85;;
12896;SDS011;6516;35.028;32.372;2023-02-08T09:31:35;4.20;;;1.65;;
12896;SDS011;6516;35.028;32.372;2023-02-08T09:34:04;5.20;;;1.70;;
12896;SDS011;6516;35.028;32.372;2023-02-08T09:36:34;5.38;;;1.58;;
12896;SDS011;6516;35.028;32.372;2023-02-08T09:39:06;5.13;;;1.70;;
12896;SDS011;6516;35.028;32.372;2023-02-08T09:44:40;5.57;;;1.60;;
12896;SDS011;6516;35.028;32.372;2023-02-08T09:47:28;5.73;;;1.50;;
12896;SDS011;6516;35.028;32.372;2023-02-08T09:50:00;6.03;;;1.83;;
12896;SDS011;6516;35.028;32.372;2023-02-08T09:52:36;5.05;;;1.52;;
12896;SDS011;6516;35.028;32.372;2023-02-08T09:55:15;3.83;;;1.30;;
12896;SDS011;6516;35.028;32.372;2023-02-08T09:57:53;4.15;;;1.80;;
12896;SDS011;6516;35.028;32.372;2023-02-08T10:00:28;4.03;;;1.37;;
12896;SDS011;6516;35.028;32.372;2023-02-08T10:03:01;4.22;;;1.77;;
12896;SDS011;6516;35.028;32.372;2023-02-08T10:05:29;3.67;;;1.35;;
12896;SDS011;6516;35.028;32.372;2023-02-08T10:08:01;4.20;;;1.50;;
12896;SDS011;6516;35.028;32.372;2023-02-08T10:10:35;4.15;;;1.55;;
12896;SDS011;6516;35.028;32.372;2023-02-08T10:13:16;5.93;;;1.43;;
12896;SDS011;6516;35.028;32.372;2023-02-08T10:16:06;5.63;;;1.60;;
12896;SDS011;6516;35.028;32.372;2023-02-08T10:18:49;5.97;;;1.48;;
12896;SDS011;6516;35.028;32.372;2023-02-08T10:21:36;5.57;;;1.40;;
12896;SDS011;6516;35.028;32.372;2023-02-08T10:24:26;6.05;;;1.85;;
12896;SDS011;6516;35.028;32.372;2023-02-08T10:27:13;6.57;;;1.73;;
12896;SDS011;6516;35.028;32.372;2023-02-08T10:32:57;5.22;;;1.48;;
12896;SDS011;6516;35.028;32.372;2023-02-08T10:35:28;7.30;;;2.72;;
12896;SDS011;6516;35.028;32.372;2023-02-08T10:38:04;6.25;;;1.77;;
12896;SDS011;6516;35.028;32.372;2023-02-08T10:40:52;7.47;;;2.00;;
12896;SDS011;6516;35.028;32.372;2023-02-08T10:43:27;5.88;;;1.60;;
12896;SDS011;6516;35.028;32.372;2023-02-08T10:46:06;6.22;;;1.80;;
12896;SDS011;6516;35.028;32.372;2023-02-08T10:48:44;6.03;;;1.60;;
12896;SDS011;6516;35.028;32.372;2023-02-08T10:51:26;6.95;;;2.35;;
12896;SDS011;6516;35.028;32.372;2023-02-08T10:53:54;5.37;;;1.80;;
12896;SDS011;6516;35.028;32.372;2023-02-08T10:56:30;5.05;;;1.50;;
12896;SDS011;6516;35.028;32.372;2023-02-08T10:59:13;5.50;;;1.50;;
12896;SDS011;6516;35.028;32.372;2023-02-08T11:01:45;5.97;;;1.90;;
12896;SDS011;6516;35.028;32.372;2023-02-08T11:04:15;4.95;;;1.70;;
12896;SDS011;6516;35.028;32.372;2023-02-08T11:06:44;4.13;;;1.37;;
12896;SDS011;6516;35.028;32.372;2023-02-08T11:09:23;6.10;;;1.67;;
12896;SDS011;6516;35.028;32.372;2023-02-08T11:11:55;4.78;;;1.60;;
12896;SDS011;6516;35.028;32.372;2023-02-08T11:14:25;3.83;;;1.60;;
12896;SDS011;6516;35.028;32.372;2023-02-08T11:16:56;5.63;;;1.58;;
12896;SDS011;6516;35.028;32.372;2023-02-08T11:19:31;5.43;;;1.40;;
12896;SDS011;6516;35.028;32.372;2023-02-08T11:22:03;4.18;;;1.20;;
12896;SDS011;6516;35.028;32.372;2023-02-08T11:24:32;5.22;;;1.38;;
12896;SDS011;6516;35.028;32.372;2023-02-08T11:27:17;5.65;;;1.63;;
12896;SDS011;6516;35.028;32.372;2023-02-08T11:30:10;3.72;;;1.40;;
12896;SDS011;6516;35.028;32.372;2023-02-08T11:32:47;4.37;;;1.50;;
12896;SDS011;6516;35.028;32.372;2023-02-08T11:35:48;5.30;;;1.35;;
12896;SDS011;6516;35.028;32.372;2023-02-08T11:38:31;9.82;;;1.60;;
12896;SDS011;6516;35.028;32.372;2023-02-08T11:41:01;4.38;;;1.40;;
12896;SDS011;6516;35.028;32.372;2023-02-08T11:43:41;5.07;;;1.52;;
12896;SDS011;6516;35.028;32.372;2023-02-08T11:46:10;3.87;;;1.50;;
12896;SDS011;6516;35.028;32.372;2023-02-08T11:48:39;5.05;;;1.58;;
12896;SDS011;6516;35.028;32.372;2023-02-08T11:51:12;3.45;;;1.23;;
12896;SDS011;6516;35.028;32.372;2023-02-08T11:53:51;4.32;;;1.40;;
12896;SDS011;6516;35.028;32.372;2023-02-08T11:56:22;3.55;;;1.20;;
12896;SDS011;6516;35.028;32.372;2023-02-08T11:58:59;3.90;;;1.27;;
12896;SDS011;6516;35.028;32.372;2023-02-08T12:01:41;4.97;;;1.92;;
12896;SDS011;6516;35.028;32.372;2023-02-08T12:04:10;4.35;;;1.40;;
12896;SDS011;6516;35.028;32.372;2023-02-08T12:13:11;4.33;;;1.60;;
12896;SDS011;6516;35.028;32.372;2023-02-08T12:16:00;3.63;;;1.20;;
12896;SDS011;6516;35.028;32.372;2023-02-08T12:21:47;4.47;;;1.30;;
12896;SDS011;6516;35.028;32.372;2023-02-08T12:24:24;4.38;;;1.25;;
12896;SDS011;6516;35.028;32.372;2023-02-08T12:27:06;4.77;;;1.10;;
12896;SDS011;6516;35.028;32.372;2023-02-08T12:29:52;4.50;;;1.40;;
12896;SDS011;6516;35.028;32.372;2023-02-08T12:35:57;7.05;;;1.50;;
12896;SDS011;6516;35.028;32.372;2023-02-08T12:38:54;3.65;;;1.30;;
12896;SDS011;6516;35.028;32.372;2023-02-08T12:41:56;3.70;;;1.60;;
12896;SDS011;6516;35.028;32.372;2023-02-08T12:44:55;5.20;;;1.52;;
12896;SDS011;6516;35.028;32.372;2023-02-08T12:47:52;4.85;;;1.50;;
12896;SDS011;6516;35.028;32.372;2023-02-08T12:50:34;3.20;;;1.38;;
12896;SDS011;6516;35.028;32.372;2023-02-08T12:53:14;4.30;;;1.40;;
12896;SDS011;6516;35.028;32.372;2023-02-08T12:55:50;4.53;;;1.80;;
12896;SDS011;6516;35.028;32.372;2023-02-08T12:58:24;4.15;;;1.60;;
12896;SDS011;6516;35.028;32.372;2023-02-08T13:00:56;4.05;;;1.42;;
12896;SDS011;6516;35.028;32.372;2023-02-08T13:03:35;4.30;;;1.40;;
12896;SDS011;6516;35.028;32.372;2023-02-08T13:06:12;5.43;;;1.55;;
12896;SDS011;6516;35.028;32.372;2023-02-08T13:08:45;4.93;;;1.60;;
12896;SDS011;6516;35.028;32.372;2023-02-08T13:11:21;4.85;;;1.50;;
12896;SDS011;6516;35.028;32.372;2023-02-08T13:14:00;6.63;;;1.83;;
12896;SDS011;6516;35.028;32.372;2023-02-08T13:16:34;5.65;;;1.52;;
12896;SDS011;6516;35.028;32.372;2023-02-08T13:19:20;5.90;;;1.75;;
12896;SDS011;6516;35.028;32.372;2023-02-08T13:21:53;4.80;;;1.77;;
12896;SDS011;6516;35.028;32.372;2023-02-08T13:24:24;4.50;;;1.70;;
12896;SDS011;6516;35.028;32.372;2023-02-08T13:27:00;3.38;;;1.58;;
12896;SDS011;6516;35.028;32.372;2023-02-08T13:29:29;4.38;;;1.70;;
12896;SDS011;6516;35.028;32.372;2023-02-08T13:31:58;4.93;;;1.30;;
12896;SDS011;6516;35.028;32.372;2023-02-08T13:34:33;5.73;;;1.93;;
12896;SDS011;6516;35.028;32.372;2023-02-08T13:37:16;4.05;;;1.50;;
12896;SDS011;6516;35.028;32.372;2023-02-08T13:39:46;4.03;;;1.70;;
12896;SDS011;6516;35.028;32.372;2023-02-08T13:42:18;4.38;;;1.65;;
12896;SDS011;6516;35.028;32.372;2023-02-08T13:44:52;4.20;;;1.70;;
12896;SDS011;6516;35.028;32.372;2023-02-08T13:47:24;3.23;;;1.20;;
12896;SDS011;6516;35.028;32.372;2023-02-08T13:49:57;3.78;;;1.48;;
12896;SDS011;6516;35.028;32.372;2023-02-08T13:58:28;3.92;;;1.60;;
12896;SDS011;6516;35.028;32.372;2023-02-08T14:01:34;4.17;;;1.70;;
12896;SDS011;6516;35.028;32.372;2023-02-08T14:04:26;3.65;;;1.70;;
12896;SDS011;6516;35.028;32.372;2023-02-08T14:07:06;4.28;;;1.65;;
12896;SDS011;6516;35.028;32.372;2023-02-08T14:09:52;5.20;;;1.80;;
12896;SDS011;6516;35.028;32.372;2023-02-08T14:12:34;8.20;;;2.10;;
12896;SDS011;6516;35.028;32.372;2023-02-08T14:15:24;7.27;;;2.40;;
12896;SDS011;6516;35.028;32.372;2023-02-08T14:18:01;4.20;;;1.45;;
12896;SDS011;6516;35.028;32.372;2023-02-08T14:20:31;4.38;;;1.88;;
12896;SDS011;6516;35.028;32.372;2023-02-08T14:23:06;4.72;;;1.60;;
12896;SDS011;6516;35.028;32.372;2023-02-08T14:25:48;8.75;;;2.10;;
12896;SDS011;6516;35.028;32.372;2023-02-08T14:28:25;5.33;;;2.50;;
12896;SDS011;6516;35.028;32.372;2023-02-08T14:30:58;5.95;;;2.13;;
12896;SDS011;6516;35.028;32.372;2023-02-08T14:33:30;9.13;;;3.20;;
12896;SDS011;6516;35.028;32.372;2023-02-08T14:36:03;9.15;;;3.15;;
12896;SDS011;6516;35.028;32.372;2023-02-08T14:41:52;5.27;;;2.10;;
12896;SDS011;6516;35.028;32.372;2023-02-08T14:50:54;6.15;;;2.00;;
12896;SDS011;6516;35.028;32.372;2023-02-08T14:53:34;6.82;;;2.50;;
12896;SDS011;6516;35.028;32.372;2023-02-08T14:56:20;5.63;;;2.40;;
12896;SDS011;6516;35.028;32.372;2023-02-08T14:58:53;5.00;;;1.83;;
12896;SDS011;6516;35.028;32.372;2023-02-08T15:01:29;4.40;;;1.30;;
12896;SDS011;6516;35.028;32.372;2023-02-08T15:04:07;3.72;;;1.77;;
12896;SDS011;6516;35.028;32.372;2023-02-08T15:09:40;3.80;;;1.80;;
12896;SDS011;6516;35.028;32.372;2023-02-08T15:12:13;4.28;;;1.95;;
12896;SDS011;6516;35.028;32.372;2023-02-08T15:14:46;5.03;;;2.10;;
12896;SDS011;6516;35.028;32.372;2023-02-08T15:17:18;5.07;;;2.20;;
12896;SDS011;6516;35.028;32.372;2023-02-08T15:19:58;6.40;;;2.33;;
12896;SDS011;6516;35.028;32.372;2023-02-08T15:22:30;4.93;;;1.87;;
12896;SDS011;6516;35.028;32.372;2023-02-08T15:25:01;4.15;;;1.80;;
12896;SDS011;6516;35.028;32.372;2023-02-08T15:27:45;7.20;;;2.42;;
12896;SDS011;6516;35.028;32.372;2023-02-08T15:30:22;7.93;;;3.50;;
12896;SDS011;6516;35.028;32.372;2023-02-08T15:32:52;8.30;;;3.45;;
12896;SDS011;6516;35.028;32.372;2023-02-08T15:35:20;5.93;;;2.63;;
12896;SDS011;6516;35.028;32.372;2023-02-08T15:37:50;6.05;;;2.13;;
12896;SDS011;6516;35.028;32.372;2023-02-08T15:40:22;4.75;;;1.80;;
12896;SDS011;6516;35.028;32.372;2023-02-08T15:42:55;3.50;;;1.67;;
12896;SDS011;6516;35.028;32.372;2023-02-08T15:45:30;4.38;;;1.30;;
12896;SDS011;6516;35.028;32.372;2023-02-08T15:47:58;4.73;;;1.60;;
12896;SDS011;6516;35.028;32.372;2023-02-08T15:50:26;3.15;;;1.20;;
12896;SDS011;6516;35.028;32.372;2023-02-08T15:52:56;3.45;;;1.23;;
12896;SDS011;6516;35.028;32.372;2023-02-08T15:55:27;4.72;;;1.88;;
12896;SDS011;6516;35.028;32.372;2023-02-08T15:58:02;3.65;;;1.40;;
12896;SDS011;6516;35.028;32.372;2023-02-08T16:00:33;4.37;;;1.83;;
12896;SDS011;6516;35.028;32.372;2023-02-08T16:03:04;4.43;;;1.70;;
12896;SDS011;6516;35.028;32.372;2023-02-08T16:05:34;4.30;;;1.80;;
12896;SDS011;6516;35.028;32.372;2023-02-08T16:08:03;5.80;;;1.98;;